sensor_id;sensor_type;location;lat;lon;timestamp;temperature;humidity
2407;DHT22;37709;53.480;9.688;2023-02-28T00:01:25;2.10;99.90
2407;DHT22;37709;53.480;9.688;2023-02-28T00:03:53;2.10;99.90
2407;DHT22;37709;53.480;9.688;2023-02-28T00:06:20;2.20;99.90
2407;DHT22;37709;53.480;9.688;2023-02-28T00:08:48;2.20;99.90
2407;DHT22;37709;53.480;9.688;2023-02-28T00:11:16;2.20;99.90
2407;DHT22;37709;53.480;9.688;2023-02-28T00:13:45;2.10;99.90
2407;DHT22;37709;53.480;9.688;2023-02-28T00:16:19;2.20;99.90
2407;DHT22;37709;53.480;9.688;2023-02-28T00:18:46;2.20;99.90
2407;DHT22;37709;53.480;9.688;2023-02-28T00:21:15;2.20;99.90
2407;DHT22;37709;53.480;9.688;2023-02-28T00:23:43;2.20;99.90
2407;DHT22;37709;53.480;9.688;2023-02-28T00:26:11;2.20;99.90
2407;DHT22;37709;53.480;9.688;2023-02-28T00:28:41;2.20;99.90
2407;DHT22;37709;53.480;9.688;2023-02-28T00:31:09;2.20;99.90
2407;DHT22;37709;53.480;9.688;2023-02-28T00:33:36;2.10;99.90
2407;DHT22;37709;53.480;9.688;2023-02-28T00:36:05;2.10;99.90
2407;DHT22;37709;53.480;9.688;2023-02-28T00:38:36;2.10;99.90
2407;DHT22;37709;53.480;9.688;2023-02-28T00:41:04;2.10;99.90
2407;DHT22;37709;53.480;9.688;2023-02-28T00:43:36;2.00;99.90
2407;DHT22;37709;53.480;9.688;2023-02-28T00:46:04;2.00;99.90
2407;DHT22;37709;53.480;9.688;2023-02-28T00:48:32;1.90;99.90
2407;DHT22;37709;53.480;9.688;2023-02-28T00:50:59;1.90;99.90
2407;DHT22;37709;53.480;9.688;2023-02-28T00:53:27;1.80;99.90
2407;DHT22;37709;53.480;9.688;2023-02-28T00:55:57;1.70;99.90
2407;DHT22;37709;53.480;9.688;2023-02-28T00:58:26;1.60;99.90
2407;DHT22;37709;53.480;9.688;2023-02-28T01:00:53;1.60;99.90
2407;DHT22;37709;53.480;9.688;2023-02-28T01:03:21;1.50;99.90
2407;DHT22;37709;53.480;9.688;2023-02-28T01:05:49;1.50;99.90
2407;DHT22;37709;53.480;9.688;2023-02-28T01:08:16;1.50;99.90
2407;DHT22;37709;53.480;9.688;2023-02-28T01:10:44;1.50;99.90
2407;DHT22;37709;53.480;9.688;2023-02-28T01:13:12;1.40;99.90
2407;DHT22;37709;53.480;9.688;2023-02-28T01:15:46;1.40;99.90
2407;DHT22;37709;53.480;9.688;2023-02-28T01:18:15;1.40;99.90
2407;DHT22;37709;53.480;9.688;2023-02-28T01:20:43;1.40;99.90
2407;DHT22;37709;53.480;9.688;2023-02-28T01:23:10;1.40;99.90
2407;DHT22;37709;53.480;9.688;2023-02-28T01:25:38;1.30;99.90
2407;DHT22;37709;53.480;9.688;2023-02-28T01:28:05;1.30;99.90
2407;DHT22;37709;53.480;9.688;2023-02-28T01:30:34;1.30;99.90
2407;DHT22;37709;53.480;9.688;2023-02-28T01:33:02;1.20;99.90
2407;DHT22;37709;53.480;9.688;2023-02-28T01:35:33;1.10;99.90
2407;DHT22;37709;53.480;9.688;2023-02-28T01:38:02;1.00;99.90
2407;DHT22;37709;53.480;9.688;2023-02-28T01:40:47;0.80;99.90
2407;DHT22;37709;53.480;9.688;2023-02-28T01:43:26;0.80;99.90
2407;DHT22;37709;53.480;9.688;2023-02-28T01:45:56;0.70;99.90
2407;DHT22;37709;53.480;9.688;2023-02-28T01:48:28;0.70;99.90
2407;DHT22;37709;53.480;9.688;2023-02-28T01:50:59;0.70;99.90
2407;DHT22;37709;53.480;9.688;2023-02-28T01:53:39;0.80;99.90
2407;DHT22;37709;53.480;9.688;2023-02-28T01:56:10;0.80;99.90
2407;DHT22;37709;53.480;9.688;2023-02-28T01:58:39;0.80;99.90
2407;DHT22;37709;53.480;9.688;2023-02-28T02:01:06;0.80;99.90
2407;DHT22;37709;53.480;9.688;2023-02-28T02:03:35;0.80;99.90
2407;DHT22;37709;53.480;9.688;2023-02-28T02:06:04;0.70;99.90
2407;DHT22;37709;53.480;9.688;2023-02-28T02:08:32;0.70;99.90
2407;DHT22;37709;53.480;9.688;2023-02-28T02:11:01;0.70;99.90
2407;DHT22;37709;53.480;9.688;2023-02-28T02:14:12;0.60;99.90
2407;DHT22;37709;53.480;9.688;2023-02-28T02:17:09;0.70;99.90
2407;DHT22;37709;53.480;9.688;2023-02-28T02:25:27;0.70;99.90
2407;DHT22;37709;53.480;9.688;2023-02-28T02:28:22;0.60;99.90
2407;DHT22;37709;53.480;9.688;2023-02-28T02:34:10;0.50;99.90
2407;DHT22;37709;53.480;9.688;2023-02-28T02:37:08;0.40;99.90
2407;DHT22;37709;53.480;9.688;2023-02-28T02:39:52;0.10;99.90
2407;DHT22;37709;53.480;9.688;2023-02-28T02:42:28;0.00;99.90
2407;DHT22;37709;53.480;9.688;2023-02-28T02:45:03;-0.20;99.90
2407;DHT22;37709;53.480;9.688;2023-02-28T02:47:33;-0.30;99.90
2407;DHT22;37709;53.480;9.688;2023-02-28T02:50:06;-0.40;99.90
2407;DHT22;37709;53.480;9.688;2023-02-28T02:52:40;-0.50;99.90
2407;DHT22;37709;53.480;9.688;2023-02-28T02:55:12;-0.60;99.90
2407;DHT22;37709;53.480;9.688;2023-02-28T02:57:51;-0.60;99.90
2407;DHT22;37709;53.480;9.688;2023-02-28T03:00:23;-0.60;99.90
2407;DHT22;37709;53.480;9.688;2023-02-28T03:02:54;-0.60;99.90
2407;DHT22;37709;53.480;9.688;2023-02-28T03:05:30;-0.60;99.90
2407;DHT22;37709;53.480;9.688;2023-02-28T03:08:03;-0.70;99.90
2407;DHT22;37709;53.480;9.688;2023-02-28T03:10:37;-0.70;99.90
2407;DHT22;37709;53.480;9.688;2023-02-28T03:13:18;-0.70;99.90
2407;DHT22;37709;53.480;9.688;2023-02-28T03:21:57;-1.20;99.90
2407;DHT22;37709;53.480;9.688;2023-02-28T03:24:45;-1.30;99.90
2407;DHT22;37709;53.480;9.688;2023-02-28T03:27:23;-1.30;99.90
2407;DHT22;37709;53.480;9.688;2023-02-28T03:30:01;-1.40;99.90
2407;DHT22;37709;53.480;9.688;2023-02-28T03:32:35;-1.60;99.90
2407;DHT22;37709;53.480;9.688;2023-02-28T03:35:16;-1.60;99.90
2407;DHT22;37709;53.480;9.688;2023-02-28T03:37:56;-1.80;99.90
2407;DHT22;37709;53.480;9.688;2023-02-28T03:40:30;-1.80;99.90
2407;DHT22;37709;53.480;9.688;2023-02-28T03:43:10;-1.80;99.90
2407;DHT22;37709;53.480;9.688;2023-02-28T03:45:40;-1.90;99.90
2407;DHT22;37709;53.480;9.688;2023-02-28T03:50:48;-1.90;99.90
2407;DHT22;37709;53.480;9.688;2023-02-28T03:55:51;-1.80;99.90
2407;DHT22;37709;53.480;9.688;2023-02-28T04:01:31;-1.80;99.90
2407;DHT22;37709;53.480;9.688;2023-02-28T04:04:00;-1.90;99.90
2407;DHT22;37709;53.480;9.688;2023-02-28T04:06:31;-2.00;99.90
2407;DHT22;37709;53.480;9.688;2023-02-28T04:08:59;-2.10;99.90
2407;DHT22;37709;53.480;9.688;2023-02-28T04:13:59;-2.20;99.90
2407;DHT22;37709;53.480;9.688;2023-02-28T04:16:27;-2.20;99.90
2407;DHT22;37709;53.480;9.688;2023-02-28T04:19:03;-2.20;99.90
2407;DHT22;37709;53.480;9.688;2023-02-28T04:21:44;-2.10;99.90
2407;DHT22;37709;53.480;9.688;2023-02-28T04:24:14;-2.20;99.90
2407;DHT22;37709;53.480;9.688;2023-02-28T04:26:47;-2.20;99.90
2407;DHT22;37709;53.480;9.688;2023-02-28T04:29:21;-2.20;99.90
2407;DHT22;37709;53.480;9.688;2023-02-28T04:31:49;-2.30;99.90
2407;DHT22;37709;53.480;9.688;2023-02-28T04:34:16;-2.40;99.90
2407;DHT22;37709;53.480;9.688;2023-02-28T04:36:43;-2.40;99.90
2407;DHT22;37709;53.480;9.688;2023-02-28T04:39:12;-2.40;99.90
2407;DHT22;37709;53.480;9.688;2023-02-28T04:41:39;-2.40;99.90
2407;DHT22;37709;53.480;9.688;2023-02-28T04:44:06;-2.60;99.90
2407;DHT22;37709;53.480;9.688;2023-02-28T04:46:33;-2.70;99.90
2407;DHT22;37709;53.480;9.688;2023-02-28T04:49:01;-2.70;99.90
2407;DHT22;37709;53.480;9.688;2023-02-28T04:51:28;-2.60;99.90
2407;DHT22;37709;53.480;9.688;2023-02-28T04:53:56;-2.50;99.90
2407;DHT22;37709;53.480;9.688;2023-02-28T04:56:24;-2.60;99.90
2407;DHT22;37709;53.480;9.688;2023-02-28T04:58:51;-2.60;99.90
2407;DHT22;37709;53.480;9.688;2023-02-28T05:01:31;-2.60;99.90
2407;DHT22;37709;53.480;9.688;2023-02-28T05:04:01;-2.60;99.90
2407;DHT22;37709;53.480;9.688;2023-02-28T05:06:31;-2.60;99.90
2407;DHT22;37709;53.480;9.688;2023-02-28T05:08:59;-2.60;99.90
2407;DHT22;37709;53.480;9.688;2023-02-28T05:11:29;-2.60;99.90
2407;DHT22;37709;53.480;9.688;2023-02-28T05:14:05;-2.70;99.90
2407;DHT22;37709;53.480;9.688;2023-02-28T05:16:32;-2.80;99.90
2407;DHT22;37709;53.480;9.688;2023-02-28T05:19:00;-2.80;99.90
2407;DHT22;37709;53.480;9.688;2023-02-28T05:21:30;-2.70;99.90
2407;DHT22;37709;53.480;9.688;2023-02-28T05:24:01;-2.60;99.90
2407;DHT22;37709;53.480;9.688;2023-02-28T05:26:29;-2.60;99.90
2407;DHT22;37709;53.480;9.688;2023-02-28T05:28:57;-2.60;99.90
2407;DHT22;37709;53.480;9.688;2023-02-28T05:31:24;-2.50;99.90
2407;DHT22;37709;53.480;9.688;2023-02-28T05:33:52;-2.60;99.90
2407;DHT22;37709;53.480;9.688;2023-02-28T05:36:20;-2.80;99.90
2407;DHT22;37709;53.480;9.688;2023-02-28T05:38:48;-2.90;99.90
2407;DHT22;37709;53.480;9.688;2023-02-28T05:41:16;-3.00;99.90
2407;DHT22;37709;53.480;9.688;2023-02-28T05:43:44;-3.10;99.90
2407;DHT22;37709;53.480;9.688;2023-02-28T05:46:12;-3.20;99.90
2407;DHT22;37709;53.480;9.688;2023-02-28T05:48:41;-3.20;99.90
2407;DHT22;37709;53.480;9.688;2023-02-28T05:51:10;-3.00;99.90
2407;DHT22;37709;53.480;9.688;2023-02-28T05:53:37;-2.90;99.90
2407;DHT22;37709;53.480;9.688;2023-02-28T05:56:05;-2.90;99.90
2407;DHT22;37709;53.480;9.688;2023-02-28T05:58:32;-3.00;99.90
2407;DHT22;37709;53.480;9.688;2023-02-28T06:01:18;-3.00;99.90
2407;DHT22;37709;53.480;9.688;2023-02-28T06:03:46;-3.00;99.90
2407;DHT22;37709;53.480;9.688;2023-02-28T06:06:13;-3.00;99.90
2407;DHT22;37709;53.480;9.688;2023-02-28T06:08:41;-3.00;99.90
2407;DHT22;37709;53.480;9.688;2023-02-28T06:11:10;-3.00;99.90
2407;DHT22;37709;53.480;9.688;2023-02-28T06:13:38;-3.00;99.90
2407;DHT22;37709;53.480;9.688;2023-02-28T06:16:06;-3.00;99.90
2407;DHT22;37709;53.480;9.688;2023-02-28T06:18:34;-3.00;99.90
2407;DHT22;37709;53.480;9.688;2023-02-28T06:21:01;-3.00;99.90
2407;DHT22;37709;53.480;9.688;2023-02-28T06:23:29;-3.10;99.90
2407;DHT22;37709;53.480;9.688;2023-02-28T06:25:56;-3.10;99.90
2407;DHT22;37709;53.480;9.688;2023-02-28T06:28:26;-3.00;99.90
2407;DHT22;37709;53.480;9.688;2023-02-28T06:30:53;-3.10;99.90
2407;DHT22;37709;53.480;9.688;2023-02-28T06:33:21;-3.10;99.90
2407;DHT22;37709;53.480;9.688;2023-02-28T06:35:51;-3.20;99.90
2407;DHT22;37709;53.480;9.688;2023-02-28T06:38:19;-3.30;99.90
2407;DHT22;37709;53.480;9.688;2023-02-28T06:40:53;-3.20;99.90
2407;DHT22;37709;53.480;9.688;2023-02-28T06:43:21;-3.10;99.90
2407;DHT22;37709;53.480;9.688;2023-02-28T06:45:49;-3.10;99.90
2407;DHT22;37709;53.480;9.688;2023-02-28T06:48:16;-3.20;99.90
2407;DHT22;37709;53.480;9.688;2023-02-28T06:50:45;-3.20;99.90
2407;DHT22;37709;53.480;9.688;2023-02-28T06:53:13;-3.10;99.90
2407;DHT22;37709;53.480;9.688;2023-02-28T06:55:41;-2.90;99.90
2407;DHT22;37709;53.480;9.688;2023-02-28T06:58:09;-2.60;99.90
2407;DHT22;37709;53.480;9.688;2023-02-28T07:00:45;-2.10;99.90
2407;DHT22;37709;53.480;9.688;2023-02-28T07:03:14;-1.60;99.90
2407;DHT22;37709;53.480;9.688;2023-02-28T07:05:42;-1.00;99.90
2407;DHT22;37709;53.480;9.688;2023-02-28T07:08:09;-0.40;99.90
2407;DHT22;37709;53.480;9.688;2023-02-28T07:10:37;0.20;99.90
2407;DHT22;37709;53.480;9.688;2023-02-28T07:13:06;0.90;99.90
2407;DHT22;37709;53.480;9.688;2023-02-28T07:15:35;1.50;99.90
2407;DHT22;37709;53.480;9.688;2023-02-28T07:18:07;2.00;99.90
2407;DHT22;37709;53.480;9.688;2023-02-28T07:20:34;2.40;99.90
2407;DHT22;37709;53.480;9.688;2023-02-28T07:23:02;2.80;99.90
2407;DHT22;37709;53.480;9.688;2023-02-28T07:25:29;3.30;99.90
2407;DHT22;37709;53.480;9.688;2023-02-28T07:27:57;3.60;99.90
2407;DHT22;37709;53.480;9.688;2023-02-28T07:30:26;4.00;99.90
2407;DHT22;37709;53.480;9.688;2023-02-28T07:32:55;4.50;99.90
2407;DHT22;37709;53.480;9.688;2023-02-28T07:35:24;4.80;99.90
2407;DHT22;37709;53.480;9.688;2023-02-28T07:37:51;5.30;99.90
2407;DHT22;37709;53.480;9.688;2023-02-28T07:40:19;5.70;99.90
2407;DHT22;37709;53.480;9.688;2023-02-28T07:42:46;6.20;99.90
2407;DHT22;37709;53.480;9.688;2023-02-28T07:45:16;6.60;99.90
2407;DHT22;37709;53.480;9.688;2023-02-28T07:47:44;7.10;99.90
2407;DHT22;37709;53.480;9.688;2023-02-28T07:50:14;7.60;99.90
2407;DHT22;37709;53.480;9.688;2023-02-28T07:52:42;8.10;99.90
2407;DHT22;37709;53.480;9.688;2023-02-28T07:55:10;8.50;99.90
2407;DHT22;37709;53.480;9.688;2023-02-28T07:57:37;8.70;99.20
2407;DHT22;37709;53.480;9.688;2023-02-28T08:00:06;9.00;99.00
2407;DHT22;37709;53.480;9.688;2023-02-28T08:02:37;9.40;99.60
2407;DHT22;37709;53.480;9.688;2023-02-28T08:05:05;9.80;99.70
2407;DHT22;37709;53.480;9.688;2023-02-28T08:07:33;10.30;98.00
2407;DHT22;37709;53.480;9.688;2023-02-28T08:10:00;10.50;95.10
2407;DHT22;37709;53.480;9.688;2023-02-28T08:12:27;10.90;94.60
2407;DHT22;37709;53.480;9.688;2023-02-28T08:14:54;11.40;95.00
2407;DHT22;37709;53.480;9.688;2023-02-28T08:17:22;12.00;94.20
2407;DHT22;37709;53.480;9.688;2023-02-28T08:19:49;12.20;89.00
2407;DHT22;37709;53.480;9.688;2023-02-28T08:22:16;12.40;85.20
2407;DHT22;37709;53.480;9.688;2023-02-28T08:24:44;12.80;83.40
2407;DHT22;37709;53.480;9.688;2023-02-28T08:27:11;13.00;80.00
2407;DHT22;37709;53.480;9.688;2023-02-28T08:29:38;13.30;78.60
2407;DHT22;37709;53.480;9.688;2023-02-28T08:32:07;13.80;77.20
2407;DHT22;37709;53.480;9.688;2023-02-28T08:34:49;14.40;75.40
2407;DHT22;37709;53.480;9.688;2023-02-28T08:37:17;14.90;74.50
2407;DHT22;37709;53.480;9.688;2023-02-28T08:39:44;15.20;70.50
2407;DHT22;37709;53.480;9.688;2023-02-28T08:42:12;15.80;68.70
2407;DHT22;37709;53.480;9.688;2023-02-28T08:44:40;16.40;66.90
2407;DHT22;37709;53.480;9.688;2023-02-28T08:47:07;16.90;64.20
2407;DHT22;37709;53.480;9.688;2023-02-28T08:49:35;17.10;63.00
2407;DHT22;37709;53.480;9.688;2023-02-28T08:52:03;17.50;60.90
2407;DHT22;37709;53.480;9.688;2023-02-28T08:54:31;17.40;60.00
2407;DHT22;37709;53.480;9.688;2023-02-28T08:57:00;17.80;59.10
2407;DHT22;37709;53.480;9.688;2023-02-28T08:59:27;18.10;57.10
2407;DHT22;37709;53.480;9.688;2023-02-28T09:01:55;18.50;55.80
2407;DHT22;37709;53.480;9.688;2023-02-28T09:04:22;18.60;53.30
2407;DHT22;37709;53.480;9.688;2023-02-28T09:06:51;18.70;53.40
2407;DHT22;37709;53.480;9.688;2023-02-28T09:09:18;19.30;52.40
2407;DHT22;37709;53.480;9.688;2023-02-28T09:11:46;19.60;51.80
2407;DHT22;37709;53.480;9.688;2023-02-28T09:14:13;19.70;49.70
2407;DHT22;37709;53.480;9.688;2023-02-28T09:16:41;20.20;47.50
2407;DHT22;37709;53.480;9.688;2023-02-28T09:19:11;20.70;47.00
2407;DHT22;37709;53.480;9.688;2023-02-28T09:21:38;21.40;47.00
2407;DHT22;37709;53.480;9.688;2023-02-28T09:24:06;21.90;45.50
2407;DHT22;37709;53.480;9.688;2023-02-28T09:26:33;22.00;43.40
2407;DHT22;37709;53.480;9.688;2023-02-28T09:29:09;21.90;42.60
2407;DHT22;37709;53.480;9.688;2023-02-28T09:31:37;22.20;42.70
2407;DHT22;37709;53.480;9.688;2023-02-28T09:34:04;22.00;41.30
2407;DHT22;37709;53.480;9.688;2023-02-28T09:36:31;22.70;42.10
2407;DHT22;37709;53.480;9.688;2023-02-28T09:39:10;23.00;42.20
2407;DHT22;37709;53.480;9.688;2023-02-28T09:41:45;23.30;39.10
2407;DHT22;37709;53.480;9.688;2023-02-28T09:49:47;24.70;37.00
2407;DHT22;37709;53.480;9.688;2023-02-28T09:52:19;24.70;36.50
2407;DHT22;37709;53.480;9.688;2023-02-28T09:54:47;25.20;35.50
2407;DHT22;37709;53.480;9.688;2023-02-28T09:57:31;24.40;34.00
2407;DHT22;37709;53.480;9.688;2023-02-28T10:00:19;24.60;36.00
2407;DHT22;37709;53.480;9.688;2023-02-28T10:03:25;25.30;34.30
2407;DHT22;37709;53.480;9.688;2023-02-28T10:06:18;25.10;34.10
2407;DHT22;37709;53.480;9.688;2023-02-28T10:09:10;25.50;35.30
2407;DHT22;37709;53.480;9.688;2023-02-28T10:11:40;26.60;34.50
2407;DHT22;37709;53.480;9.688;2023-02-28T10:14:14;26.60;34.90
2407;DHT22;37709;53.480;9.688;2023-02-28T10:20:10;27.90;32.90
2407;DHT22;37709;53.480;9.688;2023-02-28T10:25:23;27.40;32.50
2407;DHT22;37709;53.480;9.688;2023-02-28T10:30:37;28.40;31.80
2407;DHT22;37709;53.480;9.688;2023-02-28T10:33:04;28.50;33.30
2407;DHT22;37709;53.480;9.688;2023-02-28T10:35:32;28.50;32.70
2407;DHT22;37709;53.480;9.688;2023-02-28T10:38:15;28.10;33.50
2407;DHT22;37709;53.480;9.688;2023-02-28T10:40:42;28.50;30.30
2407;DHT22;37709;53.480;9.688;2023-02-28T10:45:55;29.30;31.40
2407;DHT22;37709;53.480;9.688;2023-02-28T10:48:30;29.50;29.50
2407;DHT22;37709;53.480;9.688;2023-02-28T10:50:57;29.80;29.30
2407;DHT22;37709;53.480;9.688;2023-02-28T10:56:28;30.30;28.60
2407;DHT22;37709;53.480;9.688;2023-02-28T10:59:01;30.40;28.50
2407;DHT22;37709;53.480;9.688;2023-02-28T11:03:59;28.50;26.90
2407;DHT22;37709;53.480;9.688;2023-02-28T11:06:32;28.90;28.80
2407;DHT22;37709;53.480;9.688;2023-02-28T11:09:04;27.20;26.50
2407;DHT22;37709;53.480;9.688;2023-02-28T11:11:43;28.10;28.80
2407;DHT22;37709;53.480;9.688;2023-02-28T11:14:21;29.20;27.50
2407;DHT22;37709;53.480;9.688;2023-02-28T11:16:49;28.70;27.20
2407;DHT22;37709;53.480;9.688;2023-02-28T11:19:22;29.30;28.00
2407;DHT22;37709;53.480;9.688;2023-02-28T11:22:01;30.10;27.70
2407;DHT22;37709;53.480;9.688;2023-02-28T11:24:35;30.90;27.70
2407;DHT22;37709;53.480;9.688;2023-02-28T11:27:03;31.40;27.00
2407;DHT22;37709;53.480;9.688;2023-02-28T11:29:33;31.00;26.30
2407;DHT22;37709;53.480;9.688;2023-02-28T11:34:39;31.70;26.60
2407;DHT22;37709;53.480;9.688;2023-02-28T11:37:13;30.70;24.50
2407;DHT22;37709;53.480;9.688;2023-02-28T11:39:42;28.40;26.40
2407;DHT22;37709;53.480;9.688;2023-02-28T11:50:21;29.80;26.50
2407;DHT22;37709;53.480;9.688;2023-02-28T11:52:55;28.70;26.00
2407;DHT22;37709;53.480;9.688;2023-02-28T11:55:43;27.20;25.80
2407;DHT22;37709;53.480;9.688;2023-02-28T12:01:13;28.80;26.60
2407;DHT22;37709;53.480;9.688;2023-02-28T12:07:03;31.40;26.20
2407;DHT22;37709;53.480;9.688;2023-02-28T12:09:52;32.10;26.50
2407;DHT22;37709;53.480;9.688;2023-02-28T12:12:39;31.90;26.20
2407;DHT22;37709;53.480;9.688;2023-02-28T12:18:06;32.50;26.50
2407;DHT22;37709;53.480;9.688;2023-02-28T12:20:45;32.70;26.70
2407;DHT22;37709;53.480;9.688;2023-02-28T12:28:59;32.80;25.70
2407;DHT22;37709;53.480;9.688;2023-02-28T12:31:36;33.10;25.30
2407;DHT22;37709;53.480;9.688;2023-02-28T12:34:19;33.20;25.50
2407;DHT22;37709;53.480;9.688;2023-02-28T12:36:48;33.30;26.00
2407;DHT22;37709;53.480;9.688;2023-02-28T12:39:28;33.30;26.10
2407;DHT22;37709;53.480;9.688;2023-02-28T12:42:05;33.30;24.70
2407;DHT22;37709;53.480;9.688;2023-02-28T12:44:35;33.20;25.30
2407;DHT22;37709;53.480;9.688;2023-02-28T12:47:08;33.20;25.30
2407;DHT22;37709;53.480;9.688;2023-02-28T12:49:49;33.20;25.00
2407;DHT22;37709;53.480;9.688;2023-02-28T12:52:40;33.00;25.00
2407;DHT22;37709;53.480;9.688;2023-02-28T12:55:19;33.00;24.90
2407;DHT22;37709;53.480;9.688;2023-02-28T12:57:57;32.80;25.00
2407;DHT22;37709;53.480;9.688;2023-02-28T13:00:32;32.70;25.00
2407;DHT22;37709;53.480;9.688;2023-02-28T13:03:57;32.60;24.50
2407;DHT22;37709;53.480;9.688;2023-02-28T13:08:59;29.60;23.90
2407;DHT22;37709;53.480;9.688;2023-02-28T13:11:43;30.30;25.60
2407;DHT22;37709;53.480;9.688;2023-02-28T13:14:20;31.00;25.70
2407;DHT22;37709;53.480;9.688;2023-02-28T13:19:43;30.90;25.40
2407;DHT22;37709;53.480;9.688;2023-02-28T13:22:46;30.90;25.60
2407;DHT22;37709;53.480;9.688;2023-02-28T13:28:13;31.00;26.50
2407;DHT22;37709;53.480;9.688;2023-02-28T13:31:04;30.90;25.40
2407;DHT22;37709;53.480;9.688;2023-02-28T13:33:36;30.70;25.20
2407;DHT22;37709;53.480;9.688;2023-02-28T13:38:44;30.20;26.10
2407;DHT22;37709;53.480;9.688;2023-02-28T13:44:14;28.80;25.90
2407;DHT22;37709;53.480;9.688;2023-02-28T13:49:33;27.20;27.90
2407;DHT22;37709;53.480;9.688;2023-02-28T13:55:02;25.70;28.20
2407;DHT22;37709;53.480;9.688;2023-02-28T14:00:59;26.00;28.20
2407;DHT22;37709;53.480;9.688;2023-02-28T14:03:57;26.20;28.70
2407;DHT22;37709;53.480;9.688;2023-02-28T14:06:29;25.30;29.70
2407;DHT22;37709;53.480;9.688;2023-02-28T14:11:41;24.80;29.30
2407;DHT22;37709;53.480;9.688;2023-02-28T14:17:07;24.70;28.30
2407;DHT22;37709;53.480;9.688;2023-02-28T14:19:38;24.50;28.60
2407;DHT22;37709;53.480;9.688;2023-02-28T14:33:44;21.70;29.00
2407;DHT22;37709;53.480;9.688;2023-02-28T14:36:18;21.80;29.50
2407;DHT22;37709;53.480;9.688;2023-02-28T14:38:50;21.60;30.60
2407;DHT22;37709;53.480;9.688;2023-02-28T14:41:29;21.50;29.50
2407;DHT22;37709;53.480;9.688;2023-02-28T14:44:00;21.40;28.80
2407;DHT22;37709;53.480;9.688;2023-02-28T14:46:38;21.10;28.10
2407;DHT22;37709;53.480;9.688;2023-02-28T14:49:12;20.90;28.70
2407;DHT22;37709;53.480;9.688;2023-02-28T14:51:40;20.50;28.10
2407;DHT22;37709;53.480;9.688;2023-02-28T14:54:12;20.30;29.20
2407;DHT22;37709;53.480;9.688;2023-02-28T14:56:40;20.00;29.50
2407;DHT22;37709;53.480;9.688;2023-02-28T14:59:30;19.80;30.80
2407;DHT22;37709;53.480;9.688;2023-02-28T15:02:19;19.50;31.50
2407;DHT22;37709;53.480;9.688;2023-02-28T15:07:47;18.20;32.10
2407;DHT22;37709;53.480;9.688;2023-02-28T15:10:19;18.10;32.70
2407;DHT22;37709;53.480;9.688;2023-02-28T15:13:08;17.80;31.70
2407;DHT22;37709;53.480;9.688;2023-02-28T15:15:56;16.90;32.00
2407;DHT22;37709;53.480;9.688;2023-02-28T15:21:23;16.70;34.10
2407;DHT22;37709;53.480;9.688;2023-02-28T15:23:58;16.80;34.10
2407;DHT22;37709;53.480;9.688;2023-02-28T15:26:30;16.80;34.50
2407;DHT22;37709;53.480;9.688;2023-02-28T15:29:04;16.10;34.40
2407;DHT22;37709;53.480;9.688;2023-02-28T15:31:44;16.20;35.70
2407;DHT22;37709;53.480;9.688;2023-02-28T15:34:43;16.00;36.00
2407;DHT22;37709;53.480;9.688;2023-02-28T15:42:39;15.20;37.50
2407;DHT22;37709;53.480;9.688;2023-02-28T15:45:27;14.90;37.80
2407;DHT22;37709;53.480;9.688;2023-02-28T15:47:55;14.50;38.40
2407;DHT22;37709;53.480;9.688;2023-02-28T15:50:28;14.00;38.50
2407;DHT22;37709;53.480;9.688;2023-02-28T15:52:58;13.60;39.60
2407;DHT22;37709;53.480;9.688;2023-02-28T15:55:28;13.20;39.60
2407;DHT22;37709;53.480;9.688;2023-02-28T15:57:59;12.70;40.50
2407;DHT22;37709;53.480;9.688;2023-02-28T16:00:30;12.30;41.20
2407;DHT22;37709;53.480;9.688;2023-02-28T16:03:00;11.90;41.60
2407;DHT22;37709;53.480;9.688;2023-02-28T16:05:31;11.30;42.20
2407;DHT22;37709;53.480;9.688;2023-02-28T16:08:14;10.90;42.80
2407;DHT22;37709;53.480;9.688;2023-02-28T16:10:41;10.50;42.90
2407;DHT22;37709;53.480;9.688;2023-02-28T16:13:11;10.10;43.70
2407;DHT22;37709;53.480;9.688;2023-02-28T16:15:42;9.70;46.30
2407;DHT22;37709;53.480;9.688;2023-02-28T16:18:12;9.50;48.80
2407;DHT22;37709;53.480;9.688;2023-02-28T16:20:39;9.20;48.70
2407;DHT22;37709;53.480;9.688;2023-02-28T16:23:07;9.00;49.10
2407;DHT22;37709;53.480;9.688;2023-02-28T16:25:40;8.70;49.70
2407;DHT22;37709;53.480;9.688;2023-02-28T16:28:19;8.50;50.00
2407;DHT22;37709;53.480;9.688;2023-02-28T16:30:47;8.20;50.70
2407;DHT22;37709;53.480;9.688;2023-02-28T16:33:14;8.00;51.70
2407;DHT22;37709;53.480;9.688;2023-02-28T16:35:42;7.70;51.60
2407;DHT22;37709;53.480;9.688;2023-02-28T16:38:10;7.50;52.70
2407;DHT22;37709;53.480;9.688;2023-02-28T16:40:37;7.20;52.50
2407;DHT22;37709;53.480;9.688;2023-02-28T16:43:09;7.00;53.30
2407;DHT22;37709;53.480;9.688;2023-02-28T16:45:40;6.80;55.00
2407;DHT22;37709;53.480;9.688;2023-02-28T16:48:13;6.60;55.10
2407;DHT22;37709;53.480;9.688;2023-02-28T16:50:41;6.40;56.40
2407;DHT22;37709;53.480;9.688;2023-02-28T16:53:09;6.20;56.90
2407;DHT22;37709;53.480;9.688;2023-02-28T16:55:36;6.00;58.30
2407;DHT22;37709;53.480;9.688;2023-02-28T16:58:04;5.80;58.30
2407;DHT22;37709;53.480;9.688;2023-02-28T17:00:32;5.60;58.30
2407;DHT22;37709;53.480;9.688;2023-02-28T17:02:59;5.30;57.90
2407;DHT22;37709;53.480;9.688;2023-02-28T17:05:36;5.00;58.40
2407;DHT22;37709;53.480;9.688;2023-02-28T17:08:04;4.80;59.40
2407;DHT22;37709;53.480;9.688;2023-02-28T17:10:32;4.60;60.30
2407;DHT22;37709;53.480;9.688;2023-02-28T17:13:00;4.40;61.60
2407;DHT22;37709;53.480;9.688;2023-02-28T17:15:41;4.20;61.30
2407;DHT22;37709;53.480;9.688;2023-02-28T17:18:15;4.00;62.10
2407;DHT22;37709;53.480;9.688;2023-02-28T17:20:43;3.80;61.90
2407;DHT22;37709;53.480;9.688;2023-02-28T17:23:10;3.60;61.80
2407;DHT22;37709;53.480;9.688;2023-02-28T17:25:37;3.40;61.70
2407;DHT22;37709;53.480;9.688;2023-02-28T17:28:05;3.30;61.60
2407;DHT22;37709;53.480;9.688;2023-02-28T17:30:34;3.20;61.20
2407;DHT22;37709;53.480;9.688;2023-02-28T17:33:01;3.10;60.30
2407;DHT22;37709;53.480;9.688;2023-02-28T17:35:28;3.00;61.50
2407;DHT22;37709;53.480;9.688;2023-02-28T17:37:56;2.90;61.30
2407;DHT22;37709;53.480;9.688;2023-02-28T17:40:24;2.70;61.50
2407;DHT22;37709;53.480;9.688;2023-02-28T17:42:51;2.60;62.70
2407;DHT22;37709;53.480;9.688;2023-02-28T17:45:19;2.40;63.50
2407;DHT22;37709;53.480;9.688;2023-02-28T17:47:49;2.20;64.50
2407;DHT22;37709;53.480;9.688;2023-02-28T17:50:19;2.00;65.40
2407;DHT22;37709;53.480;9.688;2023-02-28T17:52:48;1.80;66.10
2407;DHT22;37709;53.480;9.688;2023-02-28T17:55:17;1.60;68.10
2407;DHT22;37709;53.480;9.688;2023-02-28T17:57:47;1.40;70.00
2407;DHT22;37709;53.480;9.688;2023-02-28T18:00:16;1.30;71.60
2407;DHT22;37709;53.480;9.688;2023-02-28T18:02:44;1.10;73.50
2407;DHT22;37709;53.480;9.688;2023-02-28T18:05:12;0.90;75.00
2407;DHT22;37709;53.480;9.688;2023-02-28T18:07:39;0.80;76.60
2407;DHT22;37709;53.480;9.688;2023-02-28T18:10:18;0.70;78.10
2407;DHT22;37709;53.480;9.688;2023-02-28T18:12:48;0.50;78.40
2407;DHT22;37709;53.480;9.688;2023-02-28T18:15:17;0.40;79.90
2407;DHT22;37709;53.480;9.688;2023-02-28T18:17:45;0.20;81.50
2407;DHT22;37709;53.480;9.688;2023-02-28T18:20:12;0.10;84.90
2407;DHT22;37709;53.480;9.688;2023-02-28T18:22:41;0.10;89.00
2407;DHT22;37709;53.480;9.688;2023-02-28T18:25:11;0.00;90.00
2407;DHT22;37709;53.480;9.688;2023-02-28T18:27:44;-0.10;90.30